Randalls Island, New York
Current Conditions -  °F | °C
As of 9:51 PM on Saturday 22 Nov 2014 (Local Time) from KNYC Reporting Station
Clear Clear  
Wind Chill: 40°   Ceiling: Unl
Heat Index: 43°   Visibility: 10mi
Dew Point: 19°   Wind: 5mph
Humidity: 38%   Direction: NA
Pressure: 30.23"   Gusts: NA
Location:  40.8022°N, 73.9368°W
Report Text: KNYC 230251Z AUTO VRB04KT 10SM CLR 06/M07 A3023 RMK AO2 SLP229 T00611072 56007 $
Loading
Personal Weather Stations






























Interactive Weather Map New forecast layout! Learn more

10-Day Weather Forecast

Advertisements
Track Severe Weather on mobile